createdAt,value
2017-09-30T00:00:27.275Z,101200.59
2017-09-30T00:02:54.907Z,101193.25
2017-09-30T00:05:22.498Z,101193.97
2017-09-30T00:07:50.129Z,101186.80
2017-09-30T00:10:17.733Z,101194.89
2017-09-30T00:12:45.358Z,101194.95
2017-09-30T00:15:13.055Z,101201.86
2017-09-30T00:17:40.670Z,101192.87
2017-09-30T00:20:08.276Z,101199.20
2017-09-30T00:22:35.917Z,101199.07
2017-09-30T00:25:03.502Z,101203.72
2017-09-30T00:27:31.131Z,101200.27
2017-09-30T00:29:58.740Z,101208.12
2017-09-30T00:32:26.370Z,101205.78
2017-09-30T00:34:54.014Z,101206.66
2017-09-30T00:37:21.657Z,101204.38
2017-09-30T00:39:49.257Z,101199.10
2017-09-30T00:42:16.899Z,101196.73
2017-09-30T00:44:44.498Z,101202.02
2017-09-30T00:47:12.096Z,101192.17
2017-09-30T00:49:39.731Z,101199.89
2017-09-30T00:52:07.528Z,101201.86
2017-09-30T00:54:35.131Z,101197.84
2017-09-30T00:57:02.745Z,101201.70
2017-09-30T00:59:30.380Z,101204.29
2017-09-30T01:01:58.011Z,101204.33
2017-09-30T01:04:25.646Z,101209.67
2017-09-30T01:06:53.243Z,101212.48
2017-09-30T01:09:20.870Z,101215.20
2017-09-30T01:11:48.556Z,101214.48
2017-09-30T01:14:16.172Z,101220.45
2017-09-30T01:16:43.799Z,101225.11
2017-09-30T01:19:11.433Z,101224.34
2017-09-30T01:21:39.036Z,101223.05
2017-09-30T01:24:06.654Z,101225.33
2017-09-30T01:26:34.255Z,101225.01
2017-09-30T01:29:01.890Z,101228.11
2017-09-30T01:31:29.503Z,101228.36
2017-09-30T01:33:57.110Z,101235.12
2017-09-30T01:36:24.768Z,101236.19
2017-09-30T01:38:52.374Z,101231.95
2017-09-30T01:41:20.011Z,101227.25
2017-09-30T01:43:47.610Z,101230.70
2017-09-30T01:46:15.255Z,101226.89
2017-09-30T01:48:42.873Z,101221.17
2017-09-30T01:51:10.658Z,101221.84
2017-09-30T01:53:38.259Z,101229.94
2017-09-30T01:56:05.897Z,101249.73
2017-09-30T01:58:33.482Z,101260.94
2017-09-30T02:01:01.122Z,101280.23
2017-09-30T02:03:28.748Z,101293.66
2017-09-30T02:05:56.370Z,101292.03
2017-09-30T02:08:23.951Z,101275.21
2017-09-30T02:10:51.569Z,101270.28
2017-09-30T02:13:19.178Z,101278.88
2017-09-30T02:15:46.833Z,101263.61
2017-09-30T02:18:14.431Z,101255.15
2017-09-30T02:20:42.010Z,101246.00
2017-09-30T02:23:09.626Z,101242.56
2017-09-30T02:25:37.235Z,101231.02
2017-09-30T02:28:04.864Z,101220.69
2017-09-30T02:30:32.455Z,101226.30
2017-09-30T02:33:00.084Z,101222.45
2017-09-30T02:35:27.677Z,101224.97
2017-09-30T02:37:55.502Z,101220.62
2017-09-30T02:40:23.094Z,101217.55
2017-09-30T02:42:50.715Z,101205.09
2017-09-30T02:45:18.302Z,101203.91
2017-09-30T02:47:45.928Z,101195.55
2017-09-30T02:50:13.515Z,101185.93
2017-09-30T02:52:41.164Z,101183.67
2017-09-30T02:55:08.789Z,101183.88
2017-09-30T02:57:36.411Z,101179.34
2017-09-30T03:00:03.998Z,101176.92
2017-09-30T03:02:31.587Z,101174.70
2017-09-30T03:04:59.369Z,101162.88
2017-09-30T03:07:26.973Z,101164.27
2017-09-30T03:09:54.607Z,101156.38
2017-09-30T03:12:22.198Z,101153.36
2017-09-30T03:14:49.946Z,101145.32
2017-09-30T03:17:17.538Z,101136.43
2017-09-30T03:19:45.181Z,101125.61
2017-09-30T03:22:12.776Z,101121.63
2017-09-30T03:24:40.631Z,101124.66
2017-09-30T03:27:08.247Z,101119.95
2017-09-30T03:29:35.841Z,101120.26
2017-09-30T03:32:03.572Z,101128.29
2017-09-30T03:34:31.166Z,101127.05
2017-09-30T03:36:58.806Z,101117.53
2017-09-30T03:39:26.398Z,101112.88
2017-09-30T03:41:54.022Z,101122.56
2017-09-30T03:44:21.702Z,101118.64
2017-09-30T03:46:49.329Z,101120.72
2017-09-30T03:49:16.921Z,101118.84
2017-09-30T03:51:44.561Z,101122.82
2017-09-30T03:54:12.163Z,101123.81
2017-09-30T03:56:39.787Z,101116.62
2017-09-30T03:59:07.518Z,101119.48
2017-09-30T04:01:35.138Z,101112.33
2017-09-30T04:04:02.738Z,101123.40
2017-09-30T04:06:30.380Z,101126.97
2017-09-30T04:08:57.971Z,101124.08
2017-09-30T04:11:25.602Z,101122.42
2017-09-30T04:13:53.197Z,101119.53
2017-09-30T04:16:20.813Z,101108.97
2017-09-30T04:18:48.450Z,101102.23
2017-09-30T04:21:16.071Z,101104.72
2017-09-30T04:23:43.754Z,101101.11
2017-09-30T04:26:11.348Z,101091.94
2017-09-30T04:28:39.071Z,101088.98
2017-09-30T04:31:06.669Z,101090.45
2017-09-30T04:33:34.287Z,101091.94
2017-09-30T04:36:01.894Z,101085.83
2017-09-30T04:38:29.519Z,101079.60
2017-09-30T04:40:57.130Z,101102.20
2017-09-30T04:43:24.879Z,101113.27
2017-09-30T04:45:52.466Z,101115.02
2017-09-30T04:48:20.092Z,101108.44
2017-09-30T04:50:47.689Z,101109.48
2017-09-30T04:53:15.319Z,101099.25
2017-09-30T04:55:42.978Z,101102.81
2017-09-30T04:58:10.719Z,101107.48
2017-09-30T05:00:38.318Z,101104.91
2017-09-30T05:03:05.946Z,101103.44
2017-09-30T05:05:33.547Z,101102.50
2017-09-30T05:08:01.190Z,101105.12
2017-09-30T05:10:28.771Z,101107.03
2017-09-30T05:12:56.423Z,101110.30
2017-09-30T05:15:24.019Z,101113.05
2017-09-30T05:17:51.695Z,101110.63
2017-09-30T05:20:19.298Z,101111.69
2017-09-30T05:22:46.937Z,101112.41
2017-09-30T05:25:14.551Z,101115.91
2017-09-30T05:27:42.159Z,101107.38
2017-09-30T05:30:09.762Z,101102.22
2017-09-30T05:32:37.417Z,101093.52
2017-09-30T05:35:05.027Z,101105.81
2017-09-30T05:37:32.687Z,101105.05
2017-09-30T05:40:00.292Z,101106.38
2017-09-30T05:42:27.903Z,101102.27
2017-09-30T05:44:55.556Z,101107.38
2017-09-30T05:47:23.195Z,101097.94
2017-09-30T05:49:50.889Z,101101.63
2017-09-30T05:52:18.536Z,101100.91
2017-09-30T05:54:46.138Z,101098.09
2017-09-30T05:57:13.788Z,101099.48
2017-09-30T05:59:41.397Z,101102.19
2017-09-30T06:02:09.098Z,101103.03
2017-09-30T06:04:36.707Z,101105.00
2017-09-30T06:07:04.417Z,101105.75
2017-09-30T06:09:32.046Z,101103.25
2017-09-30T06:11:59.684Z,101115.38
2017-09-30T06:14:27.275Z,101121.52
2017-09-30T06:16:54.874Z,101128.11
2017-09-30T06:19:22.503Z,101132.73
2017-09-30T06:21:50.106Z,101132.24
2017-09-30T06:24:17.764Z,101137.44
2017-09-30T06:26:45.342Z,101142.63
2017-09-30T06:29:12.977Z,101139.42
2017-09-30T06:31:40.578Z,101137.31
2017-09-30T06:34:08.238Z,101134.23
2017-09-30T06:36:35.902Z,101133.25
2017-09-30T06:39:04.250Z,101133.33
2017-09-30T06:41:31.835Z,101131.11
2017-09-30T06:43:59.470Z,101132.95
2017-09-30T06:46:27.092Z,101124.25
2017-09-30T06:48:54.698Z,101123.81
2017-09-30T06:51:22.347Z,101113.88
2017-09-30T06:53:49.989Z,101115.83
2017-09-30T06:56:17.636Z,101114.55
2017-09-30T06:58:45.228Z,101118.61
2017-09-30T07:01:12.873Z,101113.14
2017-09-30T07:03:40.494Z,101112.16
2017-09-30T07:06:08.226Z,101105.09
2017-09-30T07:08:35.827Z,101102.58
2017-09-30T07:11:03.462Z,101097.46
2017-09-30T07:13:31.106Z,101102.33
2017-09-30T07:15:58.736Z,101098.80
2017-09-30T07:18:26.333Z,101101.87
2017-09-30T07:20:53.978Z,101103.50
2017-09-30T07:23:21.637Z,101107.86
2017-09-30T07:25:49.228Z,101109.70
2017-09-30T07:28:16.880Z,101104.59
2017-09-30T07:30:44.570Z,101103.83
2017-09-30T07:33:12.202Z,101114.03
2017-09-30T07:35:39.804Z,101111.52
2017-09-30T07:38:07.448Z,101106.77
2017-09-30T07:40:35.067Z,101099.36
2017-09-30T07:43:02.711Z,101099.47
2017-09-30T07:45:30.327Z,101104.33
2017-09-30T07:47:57.974Z,101097.02
2017-09-30T07:50:25.573Z,101101.20
2017-09-30T07:52:53.997Z,101102.89
2017-09-30T07:55:21.617Z,101107.48
2017-09-30T07:57:49.270Z,101111.36
2017-09-30T08:00:16.890Z,101109.02
2017-09-30T08:02:44.550Z,101105.60
2017-09-30T08:05:12.168Z,101102.21
2017-09-30T08:07:39.806Z,101102.21
2017-09-30T08:10:07.425Z,101093.59
2017-09-30T08:12:35.171Z,101084.72
2017-09-30T08:15:02.817Z,101093.38
2017-09-30T08:17:30.578Z,101097.09
2017-09-30T08:19:58.198Z,101098.19
2017-09-30T08:22:25.845Z,101098.11
2017-09-30T08:24:53.450Z,101078.97
2017-09-30T08:27:21.227Z,101073.59
2017-09-30T08:29:48.827Z,101068.51
2017-09-30T08:32:16.437Z,101073.82
2017-09-30T08:34:44.197Z,101072.50
2017-09-30T08:37:11.799Z,101069.48
2017-09-30T08:39:39.434Z,101073.48
2017-09-30T08:42:07.170Z,101065.61
2017-09-30T08:44:34.801Z,101064.37
2017-09-30T08:47:02.413Z,101062.64
2017-09-30T08:49:30.070Z,101058.77
2017-09-30T08:51:57.733Z,101053.69
2017-09-30T08:54:25.366Z,101051.31
2017-09-30T08:56:53.129Z,101039.42
2017-09-30T08:59:20.782Z,101039.45
2017-09-30T09:01:48.395Z,101046.08
2017-09-30T09:04:16.072Z,101046.42
2017-09-30T09:06:43.829Z,101043.19
2017-09-30T09:09:11.760Z,101047.47
2017-09-30T09:11:39.509Z,101044.35
2017-09-30T09:14:07.142Z,101044.66
2017-09-30T09:16:34.754Z,101048.01
2017-09-30T09:19:02.431Z,101046.23
2017-09-30T09:21:30.362Z,101041.23
2017-09-30T09:23:58.034Z,101032.81
2017-09-30T09:26:25.639Z,101038.48
2017-09-30T09:28:53.271Z,101038.75
2017-09-30T09:31:21.183Z,101041.72
2017-09-30T09:33:48.919Z,101037.99
2017-09-30T09:36:16.547Z,101050.55
2017-09-30T09:38:44.167Z,101043.07
2017-09-30T09:41:11.973Z,101044.77
2017-09-30T09:43:39.595Z,101047.81
2017-09-30T09:46:07.229Z,101048.76
2017-09-30T09:48:34.837Z,101041.77
2017-09-30T09:51:02.502Z,101029.99
2017-09-30T09:53:30.122Z,101035.26
2017-09-30T09:55:57.731Z,101041.66
2017-09-30T09:58:25.380Z,101035.37
2017-09-30T10:00:52.984Z,101038.42
2017-09-30T10:03:20.899Z,101040.83
2017-09-30T10:05:48.583Z,101054.14
2017-09-30T10:08:20.870Z,101054.86
2017-09-30T10:10:54.758Z,101060.70
2017-09-30T10:13:28.743Z,101068.60
2017-09-30T10:15:57.576Z,101066.44
2017-09-30T10:21:02.045Z,101073.47
2017-09-30T10:23:30.351Z,101078.32
2017-09-30T10:26:02.247Z,101073.38
2017-09-30T10:28:32.216Z,101080.70
2017-09-30T10:31:00.366Z,101087.78
2017-09-30T10:33:28.646Z,101088.06
2017-09-30T10:35:56.823Z,101096.86
2017-09-30T10:38:25.077Z,101099.91
2017-09-30T10:40:54.418Z,101096.44
2017-09-30T10:43:23.059Z,101105.92
2017-09-30T10:45:50.709Z,101106.30
2017-09-30T10:48:18.375Z,101098.16
2017-09-30T10:50:46.918Z,101109.00
2017-09-30T10:53:14.548Z,101103.84
2017-09-30T10:55:42.302Z,101102.09
2017-09-30T10:58:09.931Z,101107.13
2017-09-30T11:00:37.579Z,101107.77
2017-09-30T11:03:05.199Z,101112.42
2017-09-30T11:05:32.871Z,101113.43
2017-09-30T11:08:00.476Z,101109.61
2017-09-30T11:10:29.131Z,101104.65
2017-09-30T11:12:56.782Z,101104.63
2017-09-30T11:15:24.640Z,101109.87
2017-09-30T11:17:52.275Z,101108.84
2017-09-30T11:20:19.897Z,101100.70
2017-09-30T11:22:47.574Z,101100.20
2017-09-30T11:25:15.376Z,101098.55
2017-09-30T11:27:43.100Z,101096.46
2017-09-30T11:30:10.726Z,101095.59
2017-09-30T11:32:38.380Z,101093.75
2017-09-30T11:35:05.996Z,101092.22
2017-09-30T11:37:33.731Z,101094.74
2017-09-30T11:40:01.345Z,101099.62
2017-09-30T11:42:29.009Z,101101.22
2017-09-30T11:44:56.648Z,101102.27
2017-09-30T11:47:24.255Z,101095.88
2017-09-30T11:49:51.950Z,101095.80
2017-09-30T11:52:19.554Z,101106.59
2017-09-30T11:54:47.203Z,101111.23
2017-09-30T11:57:14.909Z,101112.94
2017-09-30T11:59:43.090Z,101102.92
2017-09-30T12:02:10.741Z,101111.16
2017-09-30T12:04:38.392Z,101106.95
2017-09-30T12:07:06.030Z,101110.49
2017-09-30T12:09:33.939Z,101106.36
2017-09-30T12:12:01.709Z,101109.09
2017-09-30T12:14:29.373Z,101113.95
2017-09-30T12:16:57.015Z,101109.13
2017-09-30T12:19:24.640Z,101113.61
2017-09-30T12:21:52.295Z,101109.97
2017-09-30T12:24:20.108Z,101109.92
2017-09-30T12:26:47.747Z,101108.73
2017-09-30T12:29:15.418Z,101117.26
2017-09-30T12:31:43.069Z,101119.19
2017-09-30T12:34:10.733Z,101124.16
2017-09-30T12:36:38.332Z,101126.28
2017-09-30T12:39:05.974Z,101121.60
2017-09-30T12:41:33.609Z,101129.44
2017-09-30T12:44:01.290Z,101128.84
2017-09-30T12:46:28.890Z,101135.39
2017-09-30T12:48:56.574Z,101139.69
2017-09-30T12:51:24.439Z,101147.05
2017-09-30T12:53:52.168Z,101142.97
2017-09-30T12:56:19.774Z,101143.72
2017-09-30T12:58:47.408Z,101147.67
2017-09-30T13:01:15.006Z,101149.44
2017-09-30T13:03:42.820Z,101138.81
2017-09-30T13:06:10.419Z,101131.22
2017-09-30T13:08:39.110Z,101130.17
2017-09-30T13:11:06.826Z,101134.80
2017-09-30T13:13:34.463Z,101149.81
2017-09-30T13:16:02.080Z,101149.41
2017-09-30T13:18:29.735Z,101158.17
2017-09-30T13:20:57.341Z,101157.42
2017-09-30T13:23:24.967Z,101149.09
2017-09-30T13:25:52.626Z,101156.16
2017-09-30T13:28:20.221Z,101163.59
2017-09-30T13:30:47.855Z,101177.67
2017-09-30T13:33:15.451Z,101194.79
2017-09-30T13:35:43.106Z,101201.41
2017-09-30T13:38:10.757Z,101202.00
2017-09-30T13:40:38.424Z,101201.48
2017-09-30T13:43:06.030Z,101203.48
2017-09-30T13:45:33.683Z,101194.73
2017-09-30T13:48:01.292Z,101197.60
2017-09-30T13:50:28.942Z,101201.78
2017-09-30T13:52:56.604Z,101199.06
2017-09-30T13:55:24.276Z,101197.87
2017-09-30T13:57:51.887Z,101200.99
2017-09-30T14:00:19.525Z,101215.70
2017-09-30T14:02:47.147Z,101214.73
2017-09-30T14:05:14.794Z,101220.13
2017-09-30T14:07:42.503Z,101210.05
2017-09-30T14:10:10.150Z,101216.79
2017-09-30T14:12:37.789Z,101216.80
2017-09-30T14:15:05.397Z,101222.19
2017-09-30T14:17:33.034Z,101225.98
2017-09-30T14:20:00.634Z,101216.00
2017-09-30T14:22:28.273Z,101223.67
2017-09-30T14:24:56.011Z,101231.23
2017-09-30T14:27:24.388Z,101240.25
2017-09-30T14:29:52.001Z,101240.91
2017-09-30T14:32:19.657Z,101236.59
2017-09-30T14:34:47.364Z,101251.33
2017-09-30T14:37:14.971Z,101260.64
2017-09-30T14:39:43.614Z,101265.23
2017-09-30T14:42:11.250Z,101255.22
2017-09-30T14:44:38.868Z,101259.12
2017-09-30T14:47:06.516Z,101253.22
2017-09-30T14:49:34.152Z,101261.30
2017-09-30T14:52:01.786Z,101257.64
2017-09-30T14:54:29.435Z,101257.25
2017-09-30T14:56:57.067Z,101252.68
2017-09-30T14:59:24.657Z,101251.05
2017-09-30T15:01:52.290Z,101259.84
2017-09-30T15:04:19.885Z,101257.94
2017-09-30T15:06:47.527Z,101259.84
2017-09-30T15:09:15.140Z,101261.19
2017-09-30T15:11:42.783Z,101259.28
2017-09-30T15:14:10.389Z,101264.10
2017-09-30T15:16:38.046Z,101263.99
2017-09-30T15:19:05.681Z,101266.82
2017-09-30T15:21:33.317Z,101262.64
2017-09-30T15:24:00.936Z,101262.36
2017-09-30T15:26:28.600Z,101265.23
2017-09-30T15:28:56.215Z,101271.02
2017-09-30T15:31:23.885Z,101271.67
2017-09-30T15:33:51.666Z,101273.16
2017-09-30T15:36:19.303Z,101276.94
2017-09-30T15:38:46.960Z,101277.63
2017-09-30T15:41:14.740Z,101279.67
2017-09-30T15:43:42.399Z,101284.52
2017-09-30T15:46:10.032Z,101282.26
2017-09-30T15:48:37.689Z,101285.88
2017-09-30T15:51:05.398Z,101293.03
2017-09-30T15:53:33.024Z,101294.37
2017-09-30T15:56:00.662Z,101299.77
2017-09-30T15:58:28.292Z,101296.55
2017-09-30T16:00:55.996Z,101302.19
2017-09-30T16:03:23.660Z,101303.55
2017-09-30T16:05:51.431Z,101304.48
2017-09-30T16:08:19.074Z,101304.61
2017-09-30T16:10:46.750Z,101304.62
2017-09-30T16:13:14.415Z,101301.40
2017-09-30T16:15:42.042Z,101306.66
2017-09-30T16:18:09.676Z,101306.93
2017-09-30T16:20:37.337Z,101315.53
2017-09-30T16:23:04.953Z,101318.52
2017-09-30T16:25:32.692Z,101316.75
2017-09-30T16:28:00.451Z,101313.23
2017-09-30T16:30:28.108Z,101314.16
2017-09-30T16:32:55.958Z,101314.83
2017-09-30T16:35:23.673Z,101311.47
2017-09-30T16:37:51.369Z,101314.69
2017-09-30T16:40:19.011Z,101318.89
2017-09-30T16:42:46.690Z,101319.28
2017-09-30T16:45:14.430Z,101313.74
2017-09-30T16:47:42.078Z,101307.55
2017-09-30T16:50:09.686Z,101316.83
2017-09-30T16:52:37.386Z,101312.16
2017-09-30T16:55:05.011Z,101309.84
2017-09-30T16:57:32.663Z,101308.91
2017-09-30T17:00:00.320Z,101312.67
2017-09-30T17:02:27.993Z,101314.29
2017-09-30T17:04:55.618Z,101317.92
2017-09-30T17:07:23.234Z,101322.76
2017-09-30T17:09:50.894Z,101326.15
2017-09-30T17:12:18.503Z,101332.62
2017-09-30T17:14:46.147Z,101328.58
2017-09-30T17:17:13.764Z,101339.23
2017-09-30T17:19:41.452Z,101339.36
2017-09-30T17:22:09.070Z,101349.36
2017-09-30T17:24:36.703Z,101347.18
2017-09-30T17:27:04.358Z,101342.48
2017-09-30T17:29:32.018Z,101347.59
2017-09-30T17:31:59.653Z,101344.20
2017-09-30T17:34:27.399Z,101355.13
2017-09-30T17:36:55.038Z,101349.59
2017-09-30T17:39:22.619Z,101351.78
2017-09-30T17:41:50.286Z,101353.64
2017-09-30T17:44:17.899Z,101358.11
2017-09-30T17:46:45.519Z,101351.36
2017-09-30T17:49:13.143Z,101350.43
2017-09-30T17:51:40.782Z,101350.43
2017-09-30T17:54:08.587Z,101352.02
2017-09-30T17:56:36.272Z,101352.85
2017-09-30T17:59:03.878Z,101350.81
2017-09-30T18:01:31.526Z,101352.85
2017-09-30T18:03:59.128Z,101353.68
2017-09-30T18:06:26.763Z,101356.79
2017-09-30T18:08:54.367Z,101358.52
2017-09-30T18:11:22.013Z,101357.17
2017-09-30T18:13:49.637Z,101359.88
2017-09-30T18:16:17.294Z,101360.94
2017-09-30T18:18:44.942Z,101355.16
2017-09-30T18:21:12.606Z,101359.88
2017-09-30T18:23:40.236Z,101361.77
2017-09-30T18:26:07.885Z,101358.13
2017-09-30T18:28:35.566Z,101367.28
2017-09-30T18:31:03.202Z,101361.62
2017-09-30T18:33:30.815Z,101366.06
2017-09-30T18:35:58.618Z,101367.67
2017-09-30T18:38:26.307Z,101373.91
2017-09-30T18:40:54.002Z,101373.77
2017-09-30T18:43:21.653Z,101378.61
2017-09-30T18:45:49.318Z,101381.17
2017-09-30T18:48:16.926Z,101378.60
2017-09-30T18:50:46.539Z,101384.67
2017-09-30T18:53:14.183Z,101399.34
2017-09-30T18:55:41.817Z,101397.58
2017-09-30T18:58:09.424Z,101399.91
2017-09-30T19:00:37.080Z,101400.30
2017-09-30T19:03:04.843Z,101405.55
2017-09-30T19:05:32.578Z,101403.92
2017-09-30T19:08:00.255Z,101406.34
2017-09-30T19:10:27.902Z,101409.04
2017-09-30T19:12:55.574Z,101405.83
2017-09-30T19:15:23.213Z,101401.63
2017-09-30T19:17:50.832Z,101400.94
2017-09-30T19:20:18.499Z,101413.05
2017-09-30T19:22:46.129Z,101418.71
2017-09-30T19:25:13.794Z,101428.02
2017-09-30T19:27:41.403Z,101432.87
2017-09-30T19:30:09.016Z,101436.22
2017-09-30T19:32:36.643Z,101438.92
2017-09-30T19:35:04.355Z,101436.52
2017-09-30T19:37:31.981Z,101441.49
2017-09-30T19:39:59.645Z,101447.28
2017-09-30T19:42:27.306Z,101448.63
2017-09-30T19:44:54.950Z,101448.63
2017-09-30T19:47:22.843Z,101454.16
2017-09-30T19:49:50.437Z,101453.34
2017-09-30T19:52:18.145Z,101451.86
2017-09-30T19:54:45.761Z,101455.20
2017-09-30T19:57:13.612Z,101459.48
2017-09-30T19:59:41.239Z,101460.45
2017-09-30T20:02:09.050Z,101465.97
2017-09-30T20:04:36.663Z,101467.58
2017-09-30T20:07:04.389Z,101468.80
2017-09-30T20:09:32.029Z,101467.05
2017-09-30T20:11:59.865Z,101472.00
2017-09-30T20:14:27.526Z,101470.22
2017-09-30T20:16:55.196Z,101468.49
2017-09-30T20:19:22.834Z,101466.44
2017-09-30T20:21:50.506Z,101463.59
2017-09-30T20:24:18.132Z,101464.83
2017-09-30T20:26:45.758Z,101470.09
2017-09-30T20:29:13.391Z,101476.44
2017-09-30T20:31:41.025Z,101469.05
2017-09-30T20:34:08.654Z,101477.25
2017-09-30T20:36:36.343Z,101473.56
2017-09-30T20:39:03.974Z,101470.27
2017-09-30T20:41:31.821Z,101468.16
2017-09-30T20:44:00.564Z,101466.09
2017-09-30T20:46:28.233Z,101464.09
2017-09-30T20:48:55.895Z,101462.96
2017-09-30T20:51:23.572Z,101460.23
2017-09-30T20:53:51.165Z,101460.99
2017-09-30T20:58:52.806Z,101453.02
2017-09-30T21:01:20.472Z,101457.70
2017-09-30T21:03:48.155Z,101460.09
2017-09-30T21:06:15.798Z,101457.95
2017-09-30T21:08:43.446Z,101459.66
2017-09-30T21:11:11.051Z,101458.34
2017-09-30T21:13:38.724Z,101461.35
2017-09-30T21:16:06.330Z,101472.75
2017-09-30T21:18:33.988Z,101472.77
2017-09-30T21:21:01.634Z,101469.84
2017-09-30T21:23:29.259Z,101469.41
2017-09-30T21:25:56.874Z,101474.66
2017-09-30T21:28:24.508Z,101474.98
2017-09-30T21:30:52.119Z,101475.80
2017-09-30T21:33:19.784Z,101476.27
2017-09-30T21:35:47.394Z,101476.70
2017-09-30T21:38:15.058Z,101473.92
2017-09-30T21:40:42.704Z,101480.14
2017-09-30T21:43:10.334Z,101474.50
2017-09-30T21:45:37.974Z,101476.27
2017-09-30T21:48:05.562Z,101470.98
2017-09-30T21:50:33.419Z,101476.12
2017-09-30T21:53:01.039Z,101471.09
2017-09-30T21:55:28.693Z,101476.84
2017-09-30T21:57:56.298Z,101484.64
2017-09-30T22:00:24.022Z,101478.14
2017-09-30T22:02:51.802Z,101475.95
2017-09-30T22:05:19.435Z,101475.53
2017-09-30T22:07:47.058Z,101478.59
2017-09-30T22:10:14.696Z,101478.67
2017-09-30T22:12:42.551Z,101485.76
2017-09-30T22:15:10.205Z,101485.51
2017-09-30T22:17:37.803Z,101484.14
2017-09-30T22:20:05.419Z,101481.57
2017-09-30T22:22:33.045Z,101481.70
2017-09-30T22:25:00.714Z,101485.03
2017-09-30T22:27:28.330Z,101486.21
2017-09-30T22:29:56.010Z,101490.00
2017-09-30T22:32:23.698Z,101479.09
2017-09-30T22:34:51.359Z,101484.95
2017-09-30T22:37:18.958Z,101484.72
2017-09-30T22:39:46.611Z,101484.17
2017-09-30T22:42:14.235Z,101480.37
2017-09-30T22:44:41.851Z,101482.80
2017-09-30T22:47:09.498Z,101475.56
2017-09-30T22:49:37.095Z,101482.08
2017-09-30T22:52:04.739Z,101483.84
2017-09-30T22:54:32.386Z,101482.57
2017-09-30T22:57:00.026Z,101482.92
2017-09-30T22:59:27.645Z,101482.33
2017-09-30T23:01:55.294Z,101489.81
2017-09-30T23:04:22.890Z,101490.54
2017-09-30T23:06:50.546Z,101501.19
2017-09-30T23:09:18.182Z,101502.77
2017-09-30T23:11:45.885Z,101503.94
2017-09-30T23:14:13.496Z,101504.51
2017-09-30T23:16:41.115Z,101503.48
2017-09-30T23:19:08.754Z,101503.27
2017-09-30T23:21:36.387Z,101506.64
2017-09-30T23:24:04.018Z,101501.55
2017-09-30T23:26:31.637Z,101509.09
2017-09-30T23:28:59.241Z,101511.33
2017-09-30T23:31:26.889Z,101515.93
2017-09-30T23:33:54.527Z,101513.92
2017-09-30T23:36:22.169Z,101507.98
2017-09-30T23:38:49.760Z,101507.31
2017-09-30T23:41:17.403Z,101515.70
2017-09-30T23:43:45.055Z,101516.48
2017-09-30T23:46:12.702Z,101521.19
2017-09-30T23:48:40.287Z,101520.45
2017-09-30T23:51:07.931Z,101515.67
2017-09-30T23:53:35.550Z,101519.86
2017-09-30T23:56:03.182Z,101523.30
2017-09-30T23:58:30.875Z,101520.78
